BIKF/KEF METAR and TAF weather

Enter ICAO airport designator
Station Type Date Time Source
BIKF METAR 2022/07/03 14:30 UTC NOAA

BIKF 031430Z 32017KT 9999 BKN018 10/07 Q1009


Station Type Date Time Source
BIKF Decoded METAR 2022/07/03 14:30 UTC NOAA

Keflavikurflugvollur, Iceland (BIKF) 63-58N 022-36W 54M
Jul 03, 2022 - 10:30 AM EDT / 2022.07.03 1430 UTC
Wind: from the NW (320 degrees) at 20 MPH (17 KT):0
Visibility: greater than 7 mile(s):0
Sky conditions: mostly cloudy
Temperature: 50 F (10 C)
Dew Point: 44 F (7 C)
Relative Humidity: 81%
Pressure (altimeter): 29.80 in. Hg (1009 hPa)
ob: BIKF 031430Z 32017KT 9999 BKN018 10/07 Q1009
cycle: 14

Station Type Date Time Source
BIKF TAF 2022/07/03 15:45 UTC NOAA

TAF TAF BIKF 031342Z 0315/0415 33015KT 9999 BKN025 TX13/0315Z TN07/0403Z
TEMPO 0315/0408 BKN014
BECMG 0406/0408 33005KT

Example: see airport list